sensor_id;sensor_type;location;lat;lon;timestamp;temperature;humidity
26691;DHT22;14307;51.718;8.938;2024-03-02T00:00:21;6.40;99.90
26691;DHT22;14307;51.718;8.938;2024-03-02T00:02:49;6.30;99.90
26691;DHT22;14307;51.718;8.938;2024-03-02T00:05:19;6.20;99.90
26691;DHT22;14307;51.718;8.938;2024-03-02T00:07:53;6.20;99.90
26691;DHT22;14307;51.718;8.938;2024-03-02T00:10:38;6.20;99.90
26691;DHT22;14307;51.718;8.938;2024-03-02T00:13:07;6.00;99.90
26691;DHT22;14307;51.718;8.938;2024-03-02T00:15:51;6.00;99.90
26691;DHT22;14307;51.718;8.938;2024-03-02T00:18:33;6.00;99.90
26691;DHT22;14307;51.718;8.938;2024-03-02T00:21:01;6.00;99.90
26691;DHT22;14307;51.718;8.938;2024-03-02T00:23:33;5.90;99.90
26691;DHT22;14307;51.718;8.938;2024-03-02T00:26:01;5.80;99.90
26691;DHT22;14307;51.718;8.938;2024-03-02T00:28:33;5.80;99.90
26691;DHT22;14307;51.718;8.938;2024-03-02T00:31:07;5.80;99.90
26691;DHT22;14307;51.718;8.938;2024-03-02T00:33:49;5.80;99.90
26691;DHT22;14307;51.718;8.938;2024-03-02T00:36:22;5.80;99.90
26691;DHT22;14307;51.718;8.938;2024-03-02T00:38:51;5.80;99.90
26691;DHT22;14307;51.718;8.938;2024-03-02T00:41:26;5.80;99.90
26691;DHT22;14307;51.718;8.938;2024-03-02T00:46:24;5.80;99.90
26691;DHT22;14307;51.718;8.938;2024-03-02T00:51:22;5.80;99.90
26691;DHT22;14307;51.718;8.938;2024-03-02T00:53:52;5.80;99.90
26691;DHT22;14307;51.718;8.938;2024-03-02T00:56:19;5.80;99.90
26691;DHT22;14307;51.718;8.938;2024-03-02T00:58:46;5.70;99.90
26691;DHT22;14307;51.718;8.938;2024-03-02T01:01:13;5.70;99.90
26691;DHT22;14307;51.718;8.938;2024-03-02T01:03:40;5.80;99.90
26691;DHT22;14307;51.718;8.938;2024-03-02T01:06:08;5.70;99.90
26691;DHT22;14307;51.718;8.938;2024-03-02T01:08:35;5.80;99.90
26691;DHT22;14307;51.718;8.938;2024-03-02T01:11:03;5.80;99.90
26691;DHT22;14307;51.718;8.938;2024-03-02T01:13:30;5.80;99.90
26691;DHT22;14307;51.718;8.938;2024-03-02T01:15:57;5.80;99.90
26691;DHT22;14307;51.718;8.938;2024-03-02T01:18:25;5.90;99.90
26691;DHT22;14307;51.718;8.938;2024-03-02T01:20:52;5.80;99.90
26691;DHT22;14307;51.718;8.938;2024-03-02T01:23:19;5.80;99.90
26691;DHT22;14307;51.718;8.938;2024-03-02T01:25:47;5.80;99.90
26691;DHT22;14307;51.718;8.938;2024-03-02T01:28:14;5.80;99.90
26691;DHT22;14307;51.718;8.938;2024-03-02T01:30:41;5.80;99.90
26691;DHT22;14307;51.718;8.938;2024-03-02T01:33:09;5.80;99.90
26691;DHT22;14307;51.718;8.938;2024-03-02T01:35:36;5.80;99.90
26691;DHT22;14307;51.718;8.938;2024-03-02T01:38:04;5.80;99.90
26691;DHT22;14307;51.718;8.938;2024-03-02T01:40:36;5.80;99.90
26691;DHT22;14307;51.718;8.938;2024-03-02T01:43:04;5.80;99.90
26691;DHT22;14307;51.718;8.938;2024-03-02T01:45:32;5.70;99.90
26691;DHT22;14307;51.718;8.938;2024-03-02T01:47:59;5.80;99.90
26691;DHT22;14307;51.718;8.938;2024-03-02T01:50:31;5.70;99.90
26691;DHT22;14307;51.718;8.938;2024-03-02T01:52:59;5.70;99.90
26691;DHT22;14307;51.718;8.938;2024-03-02T01:55:26;5.70;99.90
26691;DHT22;14307;51.718;8.938;2024-03-02T01:57:56;5.80;99.90
26691;DHT22;14307;51.718;8.938;2024-03-02T02:00:23;5.80;99.90
26691;DHT22;14307;51.718;8.938;2024-03-02T02:02:53;5.80;99.90
26691;DHT22;14307;51.718;8.938;2024-03-02T02:05:21;5.80;99.90
26691;DHT22;14307;51.718;8.938;2024-03-02T02:07:48;5.80;99.90
26691;DHT22;14307;51.718;8.938;2024-03-02T02:10:15;5.80;99.90
26691;DHT22;14307;51.718;8.938;2024-03-02T02:12:41;5.80;99.90
26691;DHT22;14307;51.718;8.938;2024-03-02T02:15:28;5.70;99.90
26691;DHT22;14307;51.718;8.938;2024-03-02T02:17:56;5.70;99.90
26691;DHT22;14307;51.718;8.938;2024-03-02T02:20:25;5.80;99.90
26691;DHT22;14307;51.718;8.938;2024-03-02T02:22:58;5.70;99.90
26691;DHT22;14307;51.718;8.938;2024-03-02T02:25:27;5.70;99.90
26691;DHT22;14307;51.718;8.938;2024-03-02T02:27:55;5.70;99.90
26691;DHT22;14307;51.718;8.938;2024-03-02T02:30:24;5.70;99.90
26691;DHT22;14307;51.718;8.938;2024-03-02T02:32:51;5.70;99.90
26691;DHT22;14307;51.718;8.938;2024-03-02T02:35:18;5.80;99.90
26691;DHT22;14307;51.718;8.938;2024-03-02T02:37:46;5.70;99.90
26691;DHT22;14307;51.718;8.938;2024-03-02T02:40:14;5.80;99.90
26691;DHT22;14307;51.718;8.938;2024-03-02T02:42:41;5.70;99.90
26691;DHT22;14307;51.718;8.938;2024-03-02T02:45:08;5.70;99.90
26691;DHT22;14307;51.718;8.938;2024-03-02T02:47:35;5.70;99.90
26691;DHT22;14307;51.718;8.938;2024-03-02T02:50:03;5.70;99.90
26691;DHT22;14307;51.718;8.938;2024-03-02T02:52:32;5.70;99.90
26691;DHT22;14307;51.718;8.938;2024-03-02T02:55:00;5.70;99.90
26691;DHT22;14307;51.718;8.938;2024-03-02T02:57:29;5.70;99.90
26691;DHT22;14307;51.718;8.938;2024-03-02T02:59:58;5.60;99.90
26691;DHT22;14307;51.718;8.938;2024-03-02T03:02:28;5.60;99.90
26691;DHT22;14307;51.718;8.938;2024-03-02T03:04:55;5.50;99.90
26691;DHT22;14307;51.718;8.938;2024-03-02T03:07:23;5.40;99.90
26691;DHT22;14307;51.718;8.938;2024-03-02T03:09:50;5.40;99.90
26691;DHT22;14307;51.718;8.938;2024-03-02T03:12:17;5.40;99.90
26691;DHT22;14307;51.718;8.938;2024-03-02T03:14:44;5.50;99.90
26691;DHT22;14307;51.718;8.938;2024-03-02T03:17:11;5.50;99.90
26691;DHT22;14307;51.718;8.938;2024-03-02T03:19:38;5.50;99.90
26691;DHT22;14307;51.718;8.938;2024-03-02T03:22:05;5.50;99.90
26691;DHT22;14307;51.718;8.938;2024-03-02T03:24:32;5.60;99.90
26691;DHT22;14307;51.718;8.938;2024-03-02T03:26:59;5.60;99.90
26691;DHT22;14307;51.718;8.938;2024-03-02T03:29:26;5.60;99.90
26691;DHT22;14307;51.718;8.938;2024-03-02T03:31:53;5.60;99.90
26691;DHT22;14307;51.718;8.938;2024-03-02T03:34:20;5.60;99.90
26691;DHT22;14307;51.718;8.938;2024-03-02T03:36:47;5.60;99.90
26691;DHT22;14307;51.718;8.938;2024-03-02T03:39:14;5.60;99.90
26691;DHT22;14307;51.718;8.938;2024-03-02T03:41:41;5.50;99.90
26691;DHT22;14307;51.718;8.938;2024-03-02T03:44:08;5.50;99.90
26691;DHT22;14307;51.718;8.938;2024-03-02T03:46:34;5.50;99.90
26691;DHT22;14307;51.718;8.938;2024-03-02T03:49:02;5.50;99.90
26691;DHT22;14307;51.718;8.938;2024-03-02T03:51:30;5.50;99.90
26691;DHT22;14307;51.718;8.938;2024-03-02T03:53:57;5.50;99.90
26691;DHT22;14307;51.718;8.938;2024-03-02T03:56:24;5.50;99.90
26691;DHT22;14307;51.718;8.938;2024-03-02T03:58:51;5.50;99.90
26691;DHT22;14307;51.718;8.938;2024-03-02T04:01:18;5.50;99.90
26691;DHT22;14307;51.718;8.938;2024-03-02T04:03:45;5.50;99.90
26691;DHT22;14307;51.718;8.938;2024-03-02T04:06:11;5.50;99.90
26691;DHT22;14307;51.718;8.938;2024-03-02T04:08:41;5.50;99.90
26691;DHT22;14307;51.718;8.938;2024-03-02T04:11:08;5.60;99.90
26691;DHT22;14307;51.718;8.938;2024-03-02T04:13:35;5.50;99.90
26691;DHT22;14307;51.718;8.938;2024-03-02T04:16:02;5.50;99.90
26691;DHT22;14307;51.718;8.938;2024-03-02T04:18:30;5.50;99.90
26691;DHT22;14307;51.718;8.938;2024-03-02T04:20:58;5.40;99.90
26691;DHT22;14307;51.718;8.938;2024-03-02T04:23:27;5.40;99.90
26691;DHT22;14307;51.718;8.938;2024-03-02T04:25:54;5.40;99.90
26691;DHT22;14307;51.718;8.938;2024-03-02T04:28:21;5.40;99.90
26691;DHT22;14307;51.718;8.938;2024-03-02T04:30:47;5.50;99.90
26691;DHT22;14307;51.718;8.938;2024-03-02T04:33:14;5.50;99.90
26691;DHT22;14307;51.718;8.938;2024-03-02T04:35:42;5.50;99.90
26691;DHT22;14307;51.718;8.938;2024-03-02T04:38:08;5.40;99.90
26691;DHT22;14307;51.718;8.938;2024-03-02T04:40:35;5.40;99.90
26691;DHT22;14307;51.718;8.938;2024-03-02T04:43:02;5.40;99.90
26691;DHT22;14307;51.718;8.938;2024-03-02T04:45:30;5.40;99.90
26691;DHT22;14307;51.718;8.938;2024-03-02T04:47:57;5.40;99.90
26691;DHT22;14307;51.718;8.938;2024-03-02T04:50:23;5.40;99.90
26691;DHT22;14307;51.718;8.938;2024-03-02T04:52:50;5.40;99.90
26691;DHT22;14307;51.718;8.938;2024-03-02T04:55:17;5.50;99.90
26691;DHT22;14307;51.718;8.938;2024-03-02T04:57:53;5.40;99.90
26691;DHT22;14307;51.718;8.938;2024-03-02T05:00:23;5.40;99.90
26691;DHT22;14307;51.718;8.938;2024-03-02T05:02:50;5.40;99.90
26691;DHT22;14307;51.718;8.938;2024-03-02T05:05:18;5.50;99.90
26691;DHT22;14307;51.718;8.938;2024-03-02T05:07:45;5.50;99.90
26691;DHT22;14307;51.718;8.938;2024-03-02T05:10:12;5.40;99.90
26691;DHT22;14307;51.718;8.938;2024-03-02T05:12:38;5.50;99.90
26691;DHT22;14307;51.718;8.938;2024-03-02T05:15:13;5.40;99.90
26691;DHT22;14307;51.718;8.938;2024-03-02T05:17:41;5.40;99.90
26691;DHT22;14307;51.718;8.938;2024-03-02T05:20:12;5.40;99.90
26691;DHT22;14307;51.718;8.938;2024-03-02T05:22:39;5.40;99.90
26691;DHT22;14307;51.718;8.938;2024-03-02T05:25:07;5.40;99.90
26691;DHT22;14307;51.718;8.938;2024-03-02T05:27:34;5.50;99.90
26691;DHT22;14307;51.718;8.938;2024-03-02T05:30:01;5.50;99.90
26691;DHT22;14307;51.718;8.938;2024-03-02T05:32:28;5.50;99.90
26691;DHT22;14307;51.718;8.938;2024-03-02T05:34:55;5.50;99.90
26691;DHT22;14307;51.718;8.938;2024-03-02T05:37:22;5.40;99.90
26691;DHT22;14307;51.718;8.938;2024-03-02T05:39:49;5.40;99.90
26691;DHT22;14307;51.718;8.938;2024-03-02T05:42:16;5.40;99.90
26691;DHT22;14307;51.718;8.938;2024-03-02T05:44:46;5.40;99.90
26691;DHT22;14307;51.718;8.938;2024-03-02T05:47:13;5.40;99.90
26691;DHT22;14307;51.718;8.938;2024-03-02T05:49:39;5.40;99.90
26691;DHT22;14307;51.718;8.938;2024-03-02T05:52:06;5.40;99.90
26691;DHT22;14307;51.718;8.938;2024-03-02T05:54:33;5.40;99.90
26691;DHT22;14307;51.718;8.938;2024-03-02T05:57:00;5.30;99.90
26691;DHT22;14307;51.718;8.938;2024-03-02T05:59:43;5.30;99.90
26691;DHT22;14307;51.718;8.938;2024-03-02T06:02:10;5.30;99.90
26691;DHT22;14307;51.718;8.938;2024-03-02T06:04:37;5.20;99.90
26691;DHT22;14307;51.718;8.938;2024-03-02T06:07:04;5.20;99.90
26691;DHT22;14307;51.718;8.938;2024-03-02T06:09:31;5.20;99.90
26691;DHT22;14307;51.718;8.938;2024-03-02T06:11:58;5.20;99.90
26691;DHT22;14307;51.718;8.938;2024-03-02T06:14:24;5.20;99.90
26691;DHT22;14307;51.718;8.938;2024-03-02T06:16:51;5.20;99.90
26691;DHT22;14307;51.718;8.938;2024-03-02T06:19:18;5.10;99.90
26691;DHT22;14307;51.718;8.938;2024-03-02T06:21:45;5.10;99.90
26691;DHT22;14307;51.718;8.938;2024-03-02T06:24:12;5.00;99.90
26691;DHT22;14307;51.718;8.938;2024-03-02T06:26:39;5.00;99.90
26691;DHT22;14307;51.718;8.938;2024-03-02T06:29:06;5.00;99.90
26691;DHT22;14307;51.718;8.938;2024-03-02T06:31:34;5.00;99.90
26691;DHT22;14307;51.718;8.938;2024-03-02T06:34:01;5.00;99.90
26691;DHT22;14307;51.718;8.938;2024-03-02T06:36:30;5.10;99.90
26691;DHT22;14307;51.718;8.938;2024-03-02T06:38:57;5.20;99.90
26691;DHT22;14307;51.718;8.938;2024-03-02T06:41:24;5.20;99.90
26691;DHT22;14307;51.718;8.938;2024-03-02T06:43:51;5.20;99.90
26691;DHT22;14307;51.718;8.938;2024-03-02T06:46:26;5.20;99.90
26691;DHT22;14307;51.718;8.938;2024-03-02T06:48:53;5.30;99.90
26691;DHT22;14307;51.718;8.938;2024-03-02T06:51:20;5.30;99.90
26691;DHT22;14307;51.718;8.938;2024-03-02T06:53:47;5.30;99.90
26691;DHT22;14307;51.718;8.938;2024-03-02T06:56:14;5.30;99.90
26691;DHT22;14307;51.718;8.938;2024-03-02T06:58:41;5.30;99.90
26691;DHT22;14307;51.718;8.938;2024-03-02T07:01:10;5.30;99.90
26691;DHT22;14307;51.718;8.938;2024-03-02T07:03:38;5.30;99.90
26691;DHT22;14307;51.718;8.938;2024-03-02T07:06:06;5.40;99.90
26691;DHT22;14307;51.718;8.938;2024-03-02T07:08:33;5.50;99.90
26691;DHT22;14307;51.718;8.938;2024-03-02T07:11:00;5.50;99.90
26691;DHT22;14307;51.718;8.938;2024-03-02T07:13:27;5.60;99.90
26691;DHT22;14307;51.718;8.938;2024-03-02T07:15:54;5.60;99.90
26691;DHT22;14307;51.718;8.938;2024-03-02T07:18:28;5.60;99.90
26691;DHT22;14307;51.718;8.938;2024-03-02T07:20:55;5.70;99.90
26691;DHT22;14307;51.718;8.938;2024-03-02T07:23:24;5.70;99.90
26691;DHT22;14307;51.718;8.938;2024-03-02T07:25:53;5.70;99.90
26691;DHT22;14307;51.718;8.938;2024-03-02T07:28:26;5.80;99.90
26691;DHT22;14307;51.718;8.938;2024-03-02T07:31:00;5.70;99.90
26691;DHT22;14307;51.718;8.938;2024-03-02T07:33:28;5.80;99.90
26691;DHT22;14307;51.718;8.938;2024-03-02T07:35:56;5.70;99.90
26691;DHT22;14307;51.718;8.938;2024-03-02T07:38:28;5.80;99.90
26691;DHT22;14307;51.718;8.938;2024-03-02T07:40:56;5.90;99.90
26691;DHT22;14307;51.718;8.938;2024-03-02T07:43:23;5.90;99.90
26691;DHT22;14307;51.718;8.938;2024-03-02T07:45:50;6.00;99.90
26691;DHT22;14307;51.718;8.938;2024-03-02T07:48:17;5.90;99.90
26691;DHT22;14307;51.718;8.938;2024-03-02T07:50:44;6.00;99.90
26691;DHT22;14307;51.718;8.938;2024-03-02T07:53:11;6.00;99.90
26691;DHT22;14307;51.718;8.938;2024-03-02T07:55:38;6.00;99.90
26691;DHT22;14307;51.718;8.938;2024-03-02T07:58:05;6.00;99.90
26691;DHT22;14307;51.718;8.938;2024-03-02T08:00:32;6.10;99.90
26691;DHT22;14307;51.718;8.938;2024-03-02T08:03:00;6.20;99.90
26691;DHT22;14307;51.718;8.938;2024-03-02T08:05:28;6.20;99.90
26691;DHT22;14307;51.718;8.938;2024-03-02T08:07:54;6.20;99.90
26691;DHT22;14307;51.718;8.938;2024-03-02T08:10:21;6.30;99.90
26691;DHT22;14307;51.718;8.938;2024-03-02T08:12:48;6.30;99.90
26691;DHT22;14307;51.718;8.938;2024-03-02T08:15:15;6.30;99.90
26691;DHT22;14307;51.718;8.938;2024-03-02T08:17:42;6.30;99.90
26691;DHT22;14307;51.718;8.938;2024-03-02T08:20:12;6.30;99.90
26691;DHT22;14307;51.718;8.938;2024-03-02T08:22:40;6.30;99.90
26691;DHT22;14307;51.718;8.938;2024-03-02T08:25:07;6.30;99.90
26691;DHT22;14307;51.718;8.938;2024-03-02T08:27:35;6.40;99.90
26691;DHT22;14307;51.718;8.938;2024-03-02T08:30:03;6.40;99.90
26691;DHT22;14307;51.718;8.938;2024-03-02T08:32:33;6.40;99.90
26691;DHT22;14307;51.718;8.938;2024-03-02T08:35:00;6.50;99.90
26691;DHT22;14307;51.718;8.938;2024-03-02T08:37:28;6.50;99.90
26691;DHT22;14307;51.718;8.938;2024-03-02T08:39:55;6.50;99.90
26691;DHT22;14307;51.718;8.938;2024-03-02T08:42:22;6.60;99.90
26691;DHT22;14307;51.718;8.938;2024-03-02T08:44:50;6.60;99.90
26691;DHT22;14307;51.718;8.938;2024-03-02T08:47:16;6.60;99.90
26691;DHT22;14307;51.718;8.938;2024-03-02T08:49:43;6.80;99.90
26691;DHT22;14307;51.718;8.938;2024-03-02T08:52:10;6.90;99.90
26691;DHT22;14307;51.718;8.938;2024-03-02T08:54:37;7.00;99.90
26691;DHT22;14307;51.718;8.938;2024-03-02T08:57:05;7.10;99.90
26691;DHT22;14307;51.718;8.938;2024-03-02T08:59:32;7.30;99.90
26691;DHT22;14307;51.718;8.938;2024-03-02T09:01:59;7.40;99.90
26691;DHT22;14307;51.718;8.938;2024-03-02T09:04:28;7.70;99.90
26691;DHT22;14307;51.718;8.938;2024-03-02T09:06:59;7.90;99.90
26691;DHT22;14307;51.718;8.938;2024-03-02T09:09:28;8.30;99.90
26691;DHT22;14307;51.718;8.938;2024-03-02T09:11:54;8.40;99.90
26691;DHT22;14307;51.718;8.938;2024-03-02T09:14:24;8.70;99.90
26691;DHT22;14307;51.718;8.938;2024-03-02T09:16:51;9.00;99.90
26691;DHT22;14307;51.718;8.938;2024-03-02T09:19:18;9.30;99.90
26691;DHT22;14307;51.718;8.938;2024-03-02T09:21:45;9.50;99.90
26691;DHT22;14307;51.718;8.938;2024-03-02T09:24:12;9.80;99.90
26691;DHT22;14307;51.718;8.938;2024-03-02T09:26:44;9.80;99.90
26691;DHT22;14307;51.718;8.938;2024-03-02T09:29:11;9.90;99.90
26691;DHT22;14307;51.718;8.938;2024-03-02T09:31:41;9.80;99.90
26691;DHT22;14307;51.718;8.938;2024-03-02T09:34:08;9.90;99.90
26691;DHT22;14307;51.718;8.938;2024-03-02T10:14:45;10.80;99.90
26691;DHT22;14307;51.718;8.938;2024-03-02T10:17:13;11.50;99.90
26691;DHT22;14307;51.718;8.938;2024-03-02T10:19:41;11.40;99.90
26691;DHT22;14307;51.718;8.938;2024-03-02T10:22:08;11.10;99.90
26691;DHT22;14307;51.718;8.938;2024-03-02T10:24:38;11.10;99.90
26691;DHT22;14307;51.718;8.938;2024-03-02T10:27:22;11.20;99.90
26691;DHT22;14307;51.718;8.938;2024-03-02T10:29:50;11.20;99.90
26691;DHT22;14307;51.718;8.938;2024-03-02T10:32:17;11.30;99.90
26691;DHT22;14307;51.718;8.938;2024-03-02T10:34:45;11.50;99.90
26691;DHT22;14307;51.718;8.938;2024-03-02T10:37:13;11.80;99.90
26691;DHT22;14307;51.718;8.938;2024-03-02T10:39:40;11.80;99.90
26691;DHT22;14307;51.718;8.938;2024-03-02T10:42:08;11.90;99.90
26691;DHT22;14307;51.718;8.938;2024-03-02T10:44:36;11.80;99.90
26691;DHT22;14307;51.718;8.938;2024-03-02T10:47:04;11.80;99.90
26691;DHT22;14307;51.718;8.938;2024-03-02T10:49:32;11.90;99.90
26691;DHT22;14307;51.718;8.938;2024-03-02T10:52:00;11.90;99.90
26691;DHT22;14307;51.718;8.938;2024-03-02T10:54:28;12.00;99.90
26691;DHT22;14307;51.718;8.938;2024-03-02T10:57:04;12.10;99.90
26691;DHT22;14307;51.718;8.938;2024-03-02T10:59:36;12.10;99.90
26691;DHT22;14307;51.718;8.938;2024-03-02T11:02:07;12.40;99.90
26691;DHT22;14307;51.718;8.938;2024-03-02T11:04:39;12.40;99.90
26691;DHT22;14307;51.718;8.938;2024-03-02T11:07:09;12.40;99.90
26691;DHT22;14307;51.718;8.938;2024-03-02T11:09:54;12.60;99.90
26691;DHT22;14307;51.718;8.938;2024-03-02T11:12:29;12.70;99.90
26691;DHT22;14307;51.718;8.938;2024-03-02T11:14:56;12.60;99.90
26691;DHT22;14307;51.718;8.938;2024-03-02T11:17:24;12.50;99.90
26691;DHT22;14307;51.718;8.938;2024-03-02T11:19:52;12.40;99.90
26691;DHT22;14307;51.718;8.938;2024-03-02T11:22:20;12.40;99.90
26691;DHT22;14307;51.718;8.938;2024-03-02T11:24:48;12.30;99.90
26691;DHT22;14307;51.718;8.938;2024-03-02T11:33:02;12.40;99.90
26691;DHT22;14307;51.718;8.938;2024-03-02T11:35:42;12.70;99.90
26691;DHT22;14307;51.718;8.938;2024-03-02T11:38:10;12.70;99.90
26691;DHT22;14307;51.718;8.938;2024-03-02T11:40:39;12.70;99.90
26691;DHT22;14307;51.718;8.938;2024-03-02T11:43:07;12.90;99.90
26691;DHT22;14307;51.718;8.938;2024-03-02T11:45:38;13.00;99.90
26691;DHT22;14307;51.718;8.938;2024-03-02T11:48:08;12.90;99.90
26691;DHT22;14307;51.718;8.938;2024-03-02T11:50:47;12.80;99.90
26691;DHT22;14307;51.718;8.938;2024-03-02T11:53:17;12.80;99.90
26691;DHT22;14307;51.718;8.938;2024-03-02T11:55:45;12.90;99.90
26691;DHT22;14307;51.718;8.938;2024-03-02T11:58:15;12.80;99.90
26691;DHT22;14307;51.718;8.938;2024-03-02T12:00:50;12.90;99.90
26691;DHT22;14307;51.718;8.938;2024-03-02T12:03:17;13.20;99.90
26691;DHT22;14307;51.718;8.938;2024-03-02T12:05:49;13.00;99.90
26691;DHT22;14307;51.718;8.938;2024-03-02T12:08:17;13.00;99.90
26691;DHT22;14307;51.718;8.938;2024-03-02T12:10:59;13.10;99.90
26691;DHT22;14307;51.718;8.938;2024-03-02T12:13:29;13.30;99.90
26691;DHT22;14307;51.718;8.938;2024-03-02T12:15:56;13.40;99.90
26691;DHT22;14307;51.718;8.938;2024-03-02T12:18:24;13.20;99.90
26691;DHT22;14307;51.718;8.938;2024-03-02T12:20:52;13.40;99.90
26691;DHT22;14307;51.718;8.938;2024-03-02T12:23:20;13.40;99.90
26691;DHT22;14307;51.718;8.938;2024-03-02T12:25:47;13.50;99.90
26691;DHT22;14307;51.718;8.938;2024-03-02T12:28:14;13.50;99.90
26691;DHT22;14307;51.718;8.938;2024-03-02T12:30:41;13.50;99.90
26691;DHT22;14307;51.718;8.938;2024-03-02T12:33:11;13.50;99.90
26691;DHT22;14307;51.718;8.938;2024-03-02T12:35:38;13.30;99.90
26691;DHT22;14307;51.718;8.938;2024-03-02T12:38:06;13.30;99.90
26691;DHT22;14307;51.718;8.938;2024-03-02T12:40:33;13.50;99.90
26691;DHT22;14307;51.718;8.938;2024-03-02T12:43:00;13.60;99.90
26691;DHT22;14307;51.718;8.938;2024-03-02T12:45:28;13.50;99.90
26691;DHT22;14307;51.718;8.938;2024-03-02T12:47:55;13.70;99.90
26691;DHT22;14307;51.718;8.938;2024-03-02T12:50:22;13.90;99.90
26691;DHT22;14307;51.718;8.938;2024-03-02T12:52:53;14.00;99.90
26691;DHT22;14307;51.718;8.938;2024-03-02T12:55:21;13.50;99.90
26691;DHT22;14307;51.718;8.938;2024-03-02T12:57:50;13.40;99.90
26691;DHT22;14307;51.718;8.938;2024-03-02T13:00:20;13.50;99.90
26691;DHT22;14307;51.718;8.938;2024-03-02T13:02:47;13.50;99.90
26691;DHT22;14307;51.718;8.938;2024-03-02T13:05:15;13.40;99.90
26691;DHT22;14307;51.718;8.938;2024-03-02T13:07:43;13.60;99.90
26691;DHT22;14307;51.718;8.938;2024-03-02T13:10:12;13.60;99.90
26691;DHT22;14307;51.718;8.938;2024-03-02T13:12:39;13.80;99.90
26691;DHT22;14307;51.718;8.938;2024-03-02T13:15:08;13.90;99.90
26691;DHT22;14307;51.718;8.938;2024-03-02T13:17:35;13.80;99.90
26691;DHT22;14307;51.718;8.938;2024-03-02T13:20:05;13.80;99.90
26691;DHT22;14307;51.718;8.938;2024-03-02T13:22:37;13.60;99.90
26691;DHT22;14307;51.718;8.938;2024-03-02T13:25:05;13.70;99.90
26691;DHT22;14307;51.718;8.938;2024-03-02T13:27:33;13.90;99.90
26691;DHT22;14307;51.718;8.938;2024-03-02T13:30:02;13.90;99.90
26691;DHT22;14307;51.718;8.938;2024-03-02T13:32:30;14.00;99.90
26691;DHT22;14307;51.718;8.938;2024-03-02T13:34:57;14.00;99.90
26691;DHT22;14307;51.718;8.938;2024-03-02T13:37:24;14.00;99.90
26691;DHT22;14307;51.718;8.938;2024-03-02T13:39:51;14.10;99.90
26691;DHT22;14307;51.718;8.938;2024-03-02T13:42:18;14.00;99.90
26691;DHT22;14307;51.718;8.938;2024-03-02T13:44:45;13.80;99.90
26691;DHT22;14307;51.718;8.938;2024-03-02T13:47:14;13.80;99.90
26691;DHT22;14307;51.718;8.938;2024-03-02T13:49:41;13.90;99.90
26691;DHT22;14307;51.718;8.938;2024-03-02T13:52:13;14.00;99.90
26691;DHT22;14307;51.718;8.938;2024-03-02T13:54:41;13.80;99.90
26691;DHT22;14307;51.718;8.938;2024-03-02T13:57:10;13.50;99.90
26691;DHT22;14307;51.718;8.938;2024-03-02T13:59:38;13.50;99.90
26691;DHT22;14307;51.718;8.938;2024-03-02T14:02:05;13.40;99.90
26691;DHT22;14307;51.718;8.938;2024-03-02T14:04:34;13.40;99.90
26691;DHT22;14307;51.718;8.938;2024-03-02T14:07:02;13.40;99.90
26691;DHT22;14307;51.718;8.938;2024-03-02T14:09:29;13.60;99.90
26691;DHT22;14307;51.718;8.938;2024-03-02T14:11:57;13.30;99.90
26691;DHT22;14307;51.718;8.938;2024-03-02T14:14:24;13.40;99.90
26691;DHT22;14307;51.718;8.938;2024-03-02T14:16:52;13.30;99.90
26691;DHT22;14307;51.718;8.938;2024-03-02T14:19:19;13.30;99.90
26691;DHT22;14307;51.718;8.938;2024-03-02T14:21:48;13.10;99.90
26691;DHT22;14307;51.718;8.938;2024-03-02T14:24:14;13.20;99.90
26691;DHT22;14307;51.718;8.938;2024-03-02T14:26:42;13.40;99.90
26691;DHT22;14307;51.718;8.938;2024-03-02T14:29:09;13.70;99.90
26691;DHT22;14307;51.718;8.938;2024-03-02T14:31:36;13.80;99.90
26691;DHT22;14307;51.718;8.938;2024-03-02T14:34:03;13.70;99.90
26691;DHT22;14307;51.718;8.938;2024-03-02T14:36:30;13.80;99.90
26691;DHT22;14307;51.718;8.938;2024-03-02T14:38:58;13.90;99.90
26691;DHT22;14307;51.718;8.938;2024-03-02T14:41:25;14.00;99.90
26691;DHT22;14307;51.718;8.938;2024-03-02T14:43:52;13.80;99.90
26691;DHT22;14307;51.718;8.938;2024-03-02T14:46:19;13.80;99.90
26691;DHT22;14307;51.718;8.938;2024-03-02T14:48:46;13.80;99.90
26691;DHT22;14307;51.718;8.938;2024-03-02T14:51:14;13.70;99.90
26691;DHT22;14307;51.718;8.938;2024-03-02T14:53:42;13.50;99.90
26691;DHT22;14307;51.718;8.938;2024-03-02T14:56:09;13.50;99.90
26691;DHT22;14307;51.718;8.938;2024-03-02T14:58:36;13.50;99.90
26691;DHT22;14307;51.718;8.938;2024-03-02T15:01:04;13.50;99.90
26691;DHT22;14307;51.718;8.938;2024-03-02T15:03:36;13.40;99.90
26691;DHT22;14307;51.718;8.938;2024-03-02T15:06:03;13.30;99.90
26691;DHT22;14307;51.718;8.938;2024-03-02T15:08:31;13.30;99.90
26691;DHT22;14307;51.718;8.938;2024-03-02T15:10:58;13.40;99.90
26691;DHT22;14307;51.718;8.938;2024-03-02T15:13:28;13.50;99.90
26691;DHT22;14307;51.718;8.938;2024-03-02T15:15:56;13.40;99.90
26691;DHT22;14307;51.718;8.938;2024-03-02T15:18:23;13.40;99.90
26691;DHT22;14307;51.718;8.938;2024-03-02T15:20:51;13.30;99.90
26691;DHT22;14307;51.718;8.938;2024-03-02T15:23:18;13.40;99.90
26691;DHT22;14307;51.718;8.938;2024-03-02T15:25:45;13.30;99.90
26691;DHT22;14307;51.718;8.938;2024-03-02T15:28:13;13.40;99.90
26691;DHT22;14307;51.718;8.938;2024-03-02T15:30:40;13.40;99.90
26691;DHT22;14307;51.718;8.938;2024-03-02T15:33:08;13.40;99.90
26691;DHT22;14307;51.718;8.938;2024-03-02T15:35:35;13.40;99.90
26691;DHT22;14307;51.718;8.938;2024-03-02T15:38:02;13.30;99.90
26691;DHT22;14307;51.718;8.938;2024-03-02T15:40:33;13.30;99.90
26691;DHT22;14307;51.718;8.938;2024-03-02T15:43:00;13.40;99.90
26691;DHT22;14307;51.718;8.938;2024-03-02T15:45:28;13.40;99.90
26691;DHT22;14307;51.718;8.938;2024-03-02T15:48:00;13.30;99.90
26691;DHT22;14307;51.718;8.938;2024-03-02T15:50:28;13.30;99.90
26691;DHT22;14307;51.718;8.938;2024-03-02T15:52:55;13.20;99.90
26691;DHT22;14307;51.718;8.938;2024-03-02T15:55:24;13.20;99.90
26691;DHT22;14307;51.718;8.938;2024-03-02T15:57:52;13.10;99.90
26691;DHT22;14307;51.718;8.938;2024-03-02T16:00:19;13.00;99.90
26691;DHT22;14307;51.718;8.938;2024-03-02T16:02:46;13.00;99.90
26691;DHT22;14307;51.718;8.938;2024-03-02T16:05:14;13.00;99.90
26691;DHT22;14307;51.718;8.938;2024-03-02T16:07:41;12.90;99.90
26691;DHT22;14307;51.718;8.938;2024-03-02T16:10:08;12.80;99.90
26691;DHT22;14307;51.718;8.938;2024-03-02T16:12:36;12.80;99.90
26691;DHT22;14307;51.718;8.938;2024-03-02T16:15:04;12.80;99.90
26691;DHT22;14307;51.718;8.938;2024-03-02T16:17:32;12.70;99.90
26691;DHT22;14307;51.718;8.938;2024-03-02T16:19:59;12.60;99.90
26691;DHT22;14307;51.718;8.938;2024-03-02T16:22:25;12.60;99.90
26691;DHT22;14307;51.718;8.938;2024-03-02T16:24:53;12.50;99.90
26691;DHT22;14307;51.718;8.938;2024-03-02T16:27:21;12.40;99.90
26691;DHT22;14307;51.718;8.938;2024-03-02T16:29:48;12.30;99.90
26691;DHT22;14307;51.718;8.938;2024-03-02T16:32:15;12.20;99.90
26691;DHT22;14307;51.718;8.938;2024-03-02T16:34:42;12.20;99.90